This is the latest recevied weather packets stored in our database for station/object DM4JH-5. If no packets are shown the sender has not sent any weather packets the latest 1 day(s).
| Time | Temp. | Humidity | Pressure | Rain* | Wind** | Luminosity | Snow |
|---|---|---|---|---|---|---|---|
| 1778353905 | 12.78° C | 69% | 1018.8 hPa | 0 mm | - | - | - |
| 1778353243 | 12.78° C | 68% | 1018.7 hPa | 0 mm | - | - | - |
| 1778351468 | 13.89° C | 68% | 1018.6 hPa | 0 mm | - | - | - |
| 1778350236 | 14.44° C | 66% | 1018.6 hPa | 0 mm | - | - | - |
| 1778349634 | 14.44° C | 66% | 1018.6 hPa | 0 mm | - | - | - |
| 1778348460 | 15° C | 63% | 1018.6 hPa | 0 mm | - | - | - |
| 1778347227 | 15.56° C | 62% | 1018.7 hPa | 0 mm | - | - | - |
| 1778345452 | 16.67° C | 59% | 1018.8 hPa | 0 mm | - | - | - |
| 1778344249 | 16.67° C | 58% | 1019 hPa | 0 mm | - | - | - |
| 1778343617 | 16.67° C | 58% | 1019 hPa | 0 mm | - | - | - |
| 1778341843 | 17.22° C | 57% | 1019.4 hPa | 0 mm | - | - | - |
| 1778340638 | 17.78° C | 56% | 1019.7 hPa | 0 mm | - | - | - |
| 1778338231 | 17.78° C | 54% | 1020.1 hPa | 0 mm | - | - | - |
| 1778335824 | 17.22° C | 57% | 1020.4 hPa | 0 mm | - | - | - |
| 1778330438 | 17.22° C | 59% | 1021.1 hPa | 0 mm | - | - | - |
| 1778329838 | 16.67° C | 59% | 1021.1 hPa | 0 mm | - | - | - |
| 1778326226 | 16.67° C | 57% | 1021.4 hPa | 0 mm | - | - | - |
| 1778325624 | 16.67° C | 58% | 1021.4 hPa | 0 mm | - | - | - |
| 1778323849 | 16.11° C | 60% | 1021.4 hPa | 0 mm | - | - | - |
| 1778323247 | 16.11° C | 61% | 1021.5 hPa | 0 mm | - | - | - |
| 1778322645 | 16.11° C | 61% | 1021.4 hPa | 0 mm | - | - | - |
| 1778322044 | 16.11° C | 62% | 1021.4 hPa | 0 mm | - | - | - |
| 1778321442 | 16.11° C | 62% | 1021.5 hPa | 0 mm | - | - | - |
| 1778320239 | 16.67° C | 64% | 1021.6 hPa | 0 mm | - | - | - |
| 1778319637 | 16.11° C | 66% | 1021.7 hPa | 0 mm | - | - | - |
* Rain latest hour (hover to see other rain measurements)
** Current wind speed in m/s (hover to see current wind gust speed)